Time,TemperatureF,DewpointF,PressureIn,WindDirection,WindDirectionDegrees,WindSpeedMPH,WindSpeedGustMPH,Humidity,HourlyPrecipIn,Conditions,Clouds,dailyrainin,SolarRadiationWatts/m^2,SoftwareType,DateUTC
2013-07-17 00:11:00,-999.0,-99.9,30.24,NNW,333,0.0,-999.0,-999,-99.99,,,0.00,0,weatherlink.com 1.10,2013-07-17 04:11:00,
2013-07-17 00:26:00,-999.0,-99.9,30.25,NNW,333,0.0,-999.0,-999,-99.99,,,0.00,0,weatherlink.com 1.10,2013-07-17 04:26:00,
2013-07-17 00:41:00,-999.0,-99.9,30.25,NNW,333,0.0,-999.0,-999,-99.99,,,0.00,0,weatherlink.com 1.10,2013-07-17 04:41:00,
2013-07-17 00:57:00,-999.0,-99.9,30.24,NNW,333,0.0,-999.0,-999,-99.99,,,0.00,0,weatherlink.com 1.10,2013-07-17 04:57:00,
2013-07-17 01:11:00,-90.0,-99.9,30.24,NNW,333,0.0,-999.0,-999,-99.99,,,0.00,0,weatherlink.com 1.10,2013-07-17 05:11:00,
2013-07-17 01:26:00,-90.0,-99.9,30.24,NNW,333,0.0,-999.0,-999,-99.99,,,0.00,0,weatherlink.com 1.10,2013-07-17 05:26:00,
2013-07-17 01:41:00,-90.0,-99.9,30.24,NNW,333,0.0,-999.0,-999,-99.99,,,0.00,0,weatherlink.com 1.10,2013-07-17 05:41:00,
2013-07-17 01:56:00,-90.0,-99.9,30.24,NNW,333,0.0,-999.0,-999,-99.99,,,0.00,0,weatherlink.com 1.10,2013-07-17 05:56:00,
2013-07-17 02:11:00,-90.0,-99.9,30.23,NNW,333,0.0,-999.0,-999,-99.99,,,0.00,0,weatherlink.com 1.10,2013-07-17 06:11:00,
2013-07-17 02:26:00,-90.0,-99.9,30.24,NNW,333,0.0,-999.0,-999,-99.99,,,0.00,0,weatherlink.com 1.10,2013-07-17 06:26:00,
2013-07-17 02:41:00,-90.0,-99.9,30.24,NNW,333,0.0,-999.0,-999,-99.99,,,0.00,0,weatherlink.com 1.10,2013-07-17 06:41:00,
2013-07-17 02:56:00,-90.0,-99.9,30.24,NNW,333,0.0,-999.0,-999,-99.99,,,0.00,0,weatherlink.com 1.10,2013-07-17 06:56:00,
2013-07-17 03:12:00,-90.0,-99.9,30.23,NNW,333,0.0,-999.0,-999,-99.99,,,0.00,0,weatherlink.com 1.10,2013-07-17 07:12:00,
2013-07-17 03:26:00,-90.0,-99.9,30.23,NNW,333,0.0,-999.0,-999,-99.99,,,0.00,0,weatherlink.com 1.10,2013-07-17 07:26:00,
2013-07-17 03:41:00,-90.0,-99.9,30.23,NNW,333,0.0,-999.0,-999,-99.99,,,0.00,0,weatherlink.com 1.10,2013-07-17 07:41:00,
2013-07-17 03:57:00,-90.0,-99.9,30.24,NNW,333,0.0,-999.0,-999,-99.99,,,0.00,0,weatherlink.com 1.10,2013-07-17 07:57:00,
2013-07-17 04:11:00,-90.0,-99.9,30.24,NNW,333,0.0,-999.0,-999,-99.99,,,0.00,0,weatherlink.com 1.10,2013-07-17 08:11:00,
2013-07-17 04:26:00,-90.0,-99.9,30.23,NNW,333,0.0,-999.0,-999,-99.99,,,0.00,0,weatherlink.com 1.10,2013-07-17 08:26:00,
2013-07-17 04:41:00,-90.0,-99.9,30.23,NNW,333,0.0,-999.0,-999,-99.99,,,0.00,0,weatherlink.com 1.10,2013-07-17 08:41:00,
2013-07-17 04:57:00,-90.0,-99.9,30.23,NNW,333,0.0,-999.0,-999,-99.99,,,0.00,0,weatherlink.com 1.10,2013-07-17 08:57:00,
2013-07-17 05:11:00,-90.0,-99.9,30.23,NNW,333,0.0,-999.0,-999,-99.99,,,0.00,0,weatherlink.com 1.10,2013-07-17 09:11:00,
2013-07-17 05:26:00,-90.0,-99.9,30.23,NNW,333,0.0,-999.0,-999,-99.99,,,0.00,0,weatherlink.com 1.10,2013-07-17 09:26:00,
2013-07-17 05:41:00,-90.0,-99.9,30.24,NNW,333,0.0,-999.0,-999,-99.99,,,0.00,0,weatherlink.com 1.10,2013-07-17 09:41:00,
2013-07-17 05:56:00,-90.0,-99.9,30.24,NNW,333,0.0,-999.0,-999,-99.99,,,0.00,7,weatherlink.com 1.10,2013-07-17 09:56:00,
2013-07-17 06:11:00,-90.0,-99.9,30.25,NNW,333,0.0,-999.0,-999,-99.99,,,0.00,16,weatherlink.com 1.10,2013-07-17 10:11:00,
2013-07-17 06:26:00,-90.0,-99.9,30.25,NNW,333,0.0,-999.0,-999,-99.99,,,0.00,30,weatherlink.com 1.10,2013-07-17 10:26:00,
2013-07-17 06:41:00,-90.0,-99.9,30.26,NNW,333,0.0,-999.0,-999,-99.99,,,0.00,69,weatherlink.com 1.10,2013-07-17 10:41:00,
2013-07-17 06:57:00,-90.0,-99.9,30.26,NNW,333,0.0,-999.0,-999,-99.99,,,0.00,56,weatherlink.com 1.10,2013-07-17 10:57:00,
2013-07-17 07:12:00,-90.0,-99.9,30.26,NNW,333,0.0,-999.0,-999,-99.99,,,0.00,130,weatherlink.com 1.10,2013-07-17 11:12:00,
2013-07-17 07:27:00,-90.0,-99.9,30.26,NNW,333,0.0,-999.0,-999,-99.99,,,0.00,162,weatherlink.com 1.10,2013-07-17 11:27:00,
2013-07-17 07:41:00,-90.0,-99.9,30.25,NNW,333,0.0,-999.0,-999,-99.99,,,0.00,223,weatherlink.com 1.10,2013-07-17 11:41:00,
2013-07-17 07:56:00,83.9,49.0,30.25,NNW,331,0.0,-999.0,30,-99.99,,,0.00,262,weatherlink.com 1.10,2013-07-17 11:56:00,
2013-07-17 08:11:00,84.4,52.0,30.25,WSW,251,3.0,-999.0,33,-99.99,,,0.00,225,weatherlink.com 1.10,2013-07-17 12:11:00,
2013-07-17 08:27:00,84.8,54.0,30.24,WSW,237,0.0,-999.0,35,-99.99,,,0.00,260,weatherlink.com 1.10,2013-07-17 12:27:00,
2013-07-17 08:41:00,85.5,54.0,30.24,WSW,249,0.0,-999.0,34,-99.99,,,0.00,320,weatherlink.com 1.10,2013-07-17 12:41:00,
2013-07-17 08:57:00,86.4,56.0,30.24,WSW,238,2.0,-999.0,36,-99.99,,,0.00,343,weatherlink.com 1.10,2013-07-17 12:57:00,
2013-07-17 09:12:00,86.9,58.0,30.24,West,261,2.0,-999.0,37,-99.99,,,0.00,338,weatherlink.com 1.10,2013-07-17 13:12:00,
2013-07-17 09:27:00,87.6,59.0,30.23,West,265,2.0,-999.0,38,-99.99,,,0.00,446,weatherlink.com 1.10,2013-07-17 13:27:00,
2013-07-17 09:42:00,88.5,61.0,30.23,WSW,256,2.0,-999.0,40,-99.99,,,0.00,492,weatherlink.com 1.10,2013-07-17 13:42:00,
2013-07-17 09:56:00,89.8,64.0,30.23,West,279,0.0,-999.0,43,-99.99,,,0.00,561,weatherlink.com 1.10,2013-07-17 13:56:00,
2013-07-17 10:12:00,90.2,67.0,30.23,West,274,0.0,-999.0,47,-99.99,,,0.00,568,weatherlink.com 1.10,2013-07-17 14:12:00,
2013-07-17 10:27:00,91.0,68.0,30.23,WSW,244,0.0,-999.0,47,-99.99,,,0.00,626,weatherlink.com 1.10,2013-07-17 14:27:00,
2013-07-17 10:42:00,90.6,68.0,30.23,SW,226,0.0,-999.0,48,-99.99,,,0.00,663,weatherlink.com 1.10,2013-07-17 14:42:00,
2013-07-17 10:57:00,90.8,69.0,30.22,West,261,2.0,-999.0,49,-99.99,,,0.00,714,weatherlink.com 1.10,2013-07-17 14:57:00,
2013-07-17 11:12:00,91.8,70.0,30.22,WSW,254,0.0,-999.0,49,-99.99,,,0.00,740,weatherlink.com 1.10,2013-07-17 15:12:00,
2013-07-17 11:27:00,92.6,71.0,30.21,West,261,0.0,-999.0,49,-99.99,,,0.00,768,weatherlink.com 1.10,2013-07-17 15:27:00,
2013-07-17 11:42:00,92.9,72.0,30.21,SW,235,0.0,-999.0,50,-99.99,,,0.00,775,weatherlink.com 1.10,2013-07-17 15:42:00,
2013-07-17 11:57:00,93.1,72.0,30.20,SW,216,0.0,-999.0,50,-99.99,,,0.00,810,weatherlink.com 1.10,2013-07-17 15:57:00,
2013-07-17 12:12:00,93.9,73.0,30.20,SW,235,2.0,-999.0,50,-99.99,,,0.00,842,weatherlink.com 1.10,2013-07-17 16:12:00,
2013-07-17 12:27:00,94.2,73.0,30.20,WNW,282,3.0,-999.0,50,-99.99,,,0.00,846,weatherlink.com 1.10,2013-07-17 16:27:00,
2013-07-17 12:41:00,95.6,74.0,30.20,West,259,3.0,-999.0,50,-99.99,,,0.00,932,weatherlink.com 1.10,2013-07-17 16:41:00,
2013-07-17 12:57:00,95.1,74.0,30.18,WSW,251,3.0,-999.0,50,-99.99,,,0.00,865,weatherlink.com 1.10,2013-07-17 16:57:00,
2013-07-17 13:11:00,96.6,75.0,30.18,WSW,241,2.0,-999.0,50,-99.99,,,0.00,918,weatherlink.com 1.10,2013-07-17 17:11:00,
2013-07-17 13:27:00,95.8,74.0,30.18,WSW,248,0.0,-999.0,50,-99.99,,,0.00,244,weatherlink.com 1.10,2013-07-17 17:27:00,
2013-07-17 13:42:00,96.4,75.0,30.17,WSW,253,0.0,-999.0,50,-99.99,,,0.00,921,weatherlink.com 1.10,2013-07-17 17:42:00,
2013-07-17 13:57:00,98.7,76.0,30.16,SW,226,0.0,-999.0,48,-99.99,,,0.00,357,weatherlink.com 1.10,2013-07-17 17:57:00,
2013-07-17 14:12:00,96.7,76.0,30.15,West,259,4.0,-999.0,51,-99.99,,,0.00,944,weatherlink.com 1.10,2013-07-17 18:12:00,
2013-07-17 14:27:00,96.9,76.0,30.14,WSW,248,0.0,-999.0,51,-99.99,,,0.00,367,weatherlink.com 1.10,2013-07-17 18:27:00,
2013-07-17 14:41:00,95.7,75.0,30.13,West,264,0.0,-999.0,52,-99.99,,,0.00,882,weatherlink.com 1.10,2013-07-17 18:41:00,
2013-07-17 14:57:00,95.1,75.0,30.14,WSW,246,0.0,-999.0,53,-99.99,,,0.00,221,weatherlink.com 1.10,2013-07-17 18:57:00,
2013-07-17 15:12:00,95.9,76.0,30.13,WSW,257,3.0,-999.0,52,-99.99,,,0.00,886,weatherlink.com 1.10,2013-07-17 19:12:00,
2013-07-17 15:27:00,97.4,76.0,30.12,SW,233,5.0,-999.0,51,-99.99,,,0.00,306,weatherlink.com 1.10,2013-07-17 19:27:00,
2013-07-17 15:42:00,96.7,76.0,30.12,WSW,257,1.0,-999.0,52,-99.99,,,0.00,828,weatherlink.com 1.10,2013-07-17 19:42:00,
2013-07-17 15:57:00,96.6,76.0,30.11,WSW,257,3.0,-999.0,52,-99.99,,,0.00,752,weatherlink.com 1.10,2013-07-17 19:57:00,
2013-07-17 16:12:00,96.5,76.0,30.11,SW,228,3.0,-999.0,52,-99.99,,,0.00,244,weatherlink.com 1.10,2013-07-17 20:12:00,
2013-07-17 16:27:00,96.1,76.0,30.11,SW,229,4.0,-999.0,52,-99.99,,,0.00,654,weatherlink.com 1.10,2013-07-17 20:27:00,
2013-07-17 16:41:00,96.2,76.0,30.11,WSW,241,3.0,-999.0,52,-99.99,,,0.00,693,weatherlink.com 1.10,2013-07-17 20:41:00,
2013-07-17 16:57:00,95.6,76.0,30.10,SW,236,3.0,-999.0,53,-99.99,,,0.00,570,weatherlink.com 1.10,2013-07-17 20:57:00,
2013-07-17 17:12:00,95.5,75.0,30.10,West,268,5.0,-999.0,52,-99.99,,,0.00,529,weatherlink.com 1.10,2013-07-17 21:12:00,
2013-07-17 17:27:00,94.8,75.0,30.09,WNW,285,5.0,-999.0,52,-99.99,,,0.00,487,weatherlink.com 1.10,2013-07-17 21:27:00,
2013-07-17 17:41:00,94.4,73.0,30.09,West,266,2.0,-999.0,50,-99.99,,,0.00,457,weatherlink.com 1.10,2013-07-17 21:41:00,
2013-07-17 17:57:00,95.0,74.0,30.08,WSW,255,1.0,-999.0,50,-99.99,,,0.00,413,weatherlink.com 1.10,2013-07-17 21:57:00,
2013-07-17 18:12:00,94.5,73.0,30.09,SW,230,0.0,-999.0,50,-99.99,,,0.00,366,weatherlink.com 1.10,2013-07-17 22:12:00,
2013-07-17 18:26:00,94.1,72.0,30.09,SW,227,0.0,-999.0,49,-99.99,,,0.00,185,weatherlink.com 1.10,2013-07-17 22:26:00,
2013-07-17 18:42:00,92.6,72.0,30.09,WSW,244,2.0,-999.0,52,-99.99,,,0.00,56,weatherlink.com 1.10,2013-07-17 22:42:00,
2013-07-17 18:57:00,91.6,73.0,30.08,WSW,251,1.0,-999.0,54,-99.99,,,0.00,47,weatherlink.com 1.10,2013-07-17 22:57:00,
2013-07-17 19:12:00,90.9,73.0,30.09,WSW,258,0.0,-999.0,55,-99.99,,,0.00,44,weatherlink.com 1.10,2013-07-17 23:12:00,
2013-07-17 19:26:00,89.8,72.0,30.09,WSW,258,3.0,-999.0,56,-99.99,,,0.00,42,weatherlink.com 1.10,2013-07-17 23:26:00,
2013-07-17 19:42:00,89.1,71.0,30.09,WSW,258,0.0,-999.0,55,-99.99,,,0.00,35,weatherlink.com 1.10,2013-07-17 23:42:00,
2013-07-17 19:57:00,88.6,70.0,30.09,West,259,2.0,-999.0,54,-99.99,,,0.00,32,weatherlink.com 1.10,2013-07-17 23:57:00,
2013-07-17 20:11:00,87.9,69.0,30.09,SW,225,0.0,-999.0,53,-99.99,,,0.00,35,weatherlink.com 1.10,2013-07-18 00:11:00,
2013-07-17 20:27:00,87.6,68.0,30.09,SW,232,0.0,-999.0,52,-99.99,,,0.00,12,weatherlink.com 1.10,2013-07-18 00:27:00,
2013-07-17 20:42:00,87.1,67.0,30.10,WSW,247,0.0,-999.0,51,-99.99,,,0.00,9,weatherlink.com 1.10,2013-07-18 00:42:00,
2013-07-17 20:57:00,86.9,65.0,30.10,WSW,249,2.0,-999.0,49,-99.99,,,0.00,0,weatherlink.com 1.10,2013-07-18 00:57:00,
2013-07-17 21:11:00,87.1,65.0,30.10,WSW,249,1.0,-999.0,48,-99.99,,,0.00,0,weatherlink.com 1.10,2013-07-18 01:11:00,
2013-07-17 21:27:00,87.1,65.0,30.09,WSW,249,0.0,-999.0,48,-99.99,,,0.00,0,weatherlink.com 1.10,2013-07-18 01:27:00,
2013-07-17 21:42:00,86.9,64.0,30.09,WSW,249,0.0,-999.0,47,-99.99,,,0.00,0,weatherlink.com 1.10,2013-07-18 01:42:00,
2013-07-17 21:57:00,86.8,62.0,30.11,WSW,249,1.0,-999.0,44,-99.99,,,0.00,0,weatherlink.com 1.10,2013-07-18 01:57:00,
2013-07-17 22:11:00,86.6,60.0,30.11,West,280,2.0,-999.0,41,-99.99,,,0.00,0,weatherlink.com 1.10,2013-07-18 02:11:00,
2013-07-17 22:27:00,86.7,60.0,30.11,WNW,286,4.0,-999.0,40,-99.99,,,0.00,0,weatherlink.com 1.10,2013-07-18 02:27:00,
2013-07-17 22:42:00,86.4,58.0,30.11,SW,236,0.0,-999.0,38,-99.99,,,0.00,0,weatherlink.com 1.10,2013-07-18 02:42:00,
2013-07-17 22:57:00,86.2,57.0,30.11,SW,232,1.0,-999.0,37,-99.99,,,0.00,0,weatherlink.com 1.10,2013-07-18 02:57:00,
2013-07-17 23:12:00,85.6,54.0,30.11,WSW,255,0.0,-999.0,34,-99.99,,,0.00,0,weatherlink.com 1.10,2013-07-18 03:12:00,
2013-07-17 23:27:00,85.2,52.0,30.11,WSW,256,0.0,-999.0,32,-99.99,,,0.00,0,weatherlink.com 1.10,2013-07-18 03:27:00,
2013-07-17 23:42:00,84.6,50.0,30.11,WSW,257,0.0,-999.0,30,-99.99,,,0.00,0,weatherlink.com 1.10,2013-07-18 03:42:00,
2013-07-17 23:57:00,84.2,49.0,30.12,WSW,255,0.0,-999.0,29,-99.99,,,0.00,0,weatherlink.com 1.10,2013-07-18 03:57:00,